createdAt,value
2019-04-26T00:02:02.609Z,15.76
2019-04-26T00:04:28.610Z,15.72
2019-04-26T00:06:54.805Z,15.72
2019-04-26T00:09:22.694Z,15.74
2019-04-26T00:11:59.151Z,15.69
2019-04-26T00:14:35.376Z,15.67
2019-04-26T00:17:03.074Z,15.68
2019-04-26T00:19:29.181Z,15.67
2019-04-26T00:21:55.281Z,15.67
2019-04-26T00:24:21.550Z,15.70
2019-04-26T00:26:47.287Z,15.62
2019-04-26T00:29:13.080Z,15.65
2019-04-26T00:31:38.865Z,15.63
2019-04-26T00:34:04.679Z,15.61
2019-04-26T00:36:30.475Z,15.55
2019-04-26T00:38:56.265Z,15.55
2019-04-26T00:41:22.702Z,15.49
2019-04-26T00:43:48.639Z,15.52
2019-04-26T00:46:15.134Z,15.48
2019-04-26T00:48:41.126Z,15.52
2019-04-26T00:51:07.425Z,15.48
2019-04-26T00:53:33.522Z,15.43
2019-04-26T00:56:00.001Z,15.43
2019-04-26T00:58:26.099Z,15.45
2019-04-26T01:00:51.879Z,15.41
2019-04-26T01:03:18.574Z,15.36
2019-04-26T01:05:44.465Z,15.37
2019-04-26T01:08:10.258Z,15.36
2019-04-26T01:10:36.051Z,15.26
2019-04-26T01:13:01.857Z,15.31
2019-04-26T01:15:27.632Z,15.26
2019-04-26T01:17:53.419Z,15.29
2019-04-26T01:20:20.690Z,15.29
2019-04-26T01:22:49.300Z,15.28
2019-04-26T01:25:34.044Z,15.21
2019-04-26T01:28:01.149Z,15.28
2019-04-26T01:30:28.831Z,15.34
2019-04-26T01:32:54.715Z,15.37
2019-04-26T01:35:20.598Z,15.36
2019-04-26T01:37:47.276Z,15.33
2019-04-26T01:40:15.067Z,15.35
2019-04-26T01:42:44.648Z,15.32
2019-04-26T01:45:20.265Z,15.33
2019-04-26T01:47:48.326Z,15.31
2019-04-26T01:50:14.315Z,15.39
2019-04-26T01:52:41.682Z,15.40
2019-04-26T01:55:08.473Z,15.36
2019-04-26T01:57:34.452Z,15.29
2019-04-26T02:00:02.141Z,15.22
2019-04-26T02:02:32.590Z,15.22
2019-04-26T02:05:00.283Z,15.12
2019-04-26T02:07:38.339Z,15.00
2019-04-26T02:10:09.507Z,14.96
2019-04-26T02:12:35.885Z,14.98
2019-04-26T02:15:03.076Z,15.00
2019-04-26T02:17:29.346Z,15.04
2019-04-26T02:19:55.138Z,15.00
2019-04-26T02:22:25.900Z,14.99
2019-04-26T02:24:52.296Z,14.91
2019-04-26T02:27:22.759Z,14.83
2019-04-26T02:29:48.556Z,14.76
2019-04-26T02:32:14.437Z,14.72
2019-04-26T02:34:40.226Z,14.65
2019-04-26T02:37:08.713Z,14.65
2019-04-26T02:39:37.797Z,14.56
2019-04-26T02:42:07.481Z,14.52
2019-04-26T02:44:38.440Z,14.46
2019-04-26T02:47:34.150Z,14.43
2019-04-26T02:50:05.152Z,14.36
2019-04-26T02:52:55.342Z,14.29
2019-04-26T02:55:38.847Z,14.17
2019-04-26T02:58:01.856Z,14.09
2019-04-26T03:00:28.127Z,14.08
2019-04-26T03:02:57.825Z,14.03
2019-04-26T03:05:24.420Z,13.96
2019-04-26T03:07:57.019Z,13.85
2019-04-26T03:10:26.600Z,13.69
2019-04-26T03:12:53.783Z,13.63
2019-04-26T03:15:34.154Z,13.53
2019-04-26T03:18:21.976Z,13.49
2019-04-26T03:20:51.681Z,13.55
2019-04-26T03:23:21.374Z,13.51
2019-04-26T03:26:22.552Z,13.54
2019-04-26T03:29:11.412Z,13.57
2019-04-26T03:31:53.945Z,13.56
2019-04-26T03:34:34.445Z,13.46
2019-04-26T03:37:22.108Z,13.42
2019-04-26T03:40:14.750Z,13.29
2019-04-26T03:43:01.993Z,13.32
2019-04-26T03:45:58.602Z,13.20
2019-04-26T03:48:37.941Z,13.16
2019-04-26T03:51:08.456Z,13.07
2019-04-26T03:53:47.139Z,13.08
2019-04-26T03:56:18.547Z,12.99
2019-04-26T03:59:16.803Z,12.95
2019-04-26T04:02:05.456Z,13.05
2019-04-26T04:04:41.064Z,13.22
2019-04-26T04:07:09.870Z,13.11
2019-04-26T04:09:41.045Z,13.14
2019-04-26T04:12:14.026Z,13.18
2019-04-26T04:14:52.478Z,13.27
2019-04-26T04:17:45.371Z,13.37
2019-04-26T04:20:33.708Z,13.33
2019-04-26T04:23:22.540Z,13.19
2019-04-26T04:25:49.848Z,13.22
2019-04-26T04:28:35.354Z,13.26
2019-04-26T04:31:10.667Z,13.26
2019-04-26T04:34:08.782Z,13.04
2019-04-26T04:36:42.348Z,13.11
2019-04-26T04:39:13.373Z,13.15
2019-04-26T04:41:56.363Z,13.15
2019-04-26T04:44:59.147Z,13.14
2019-04-26T04:47:34.742Z,13.17
2019-04-26T04:50:11.486Z,13.30
2019-04-26T04:53:06.901Z,13.29
2019-04-26T04:55:49.968Z,13.30
2019-04-26T04:58:22.201Z,13.41
2019-04-26T05:01:14.340Z,13.49
2019-04-26T05:03:55.557Z,13.56
2019-04-26T05:06:33.078Z,13.56
2019-04-26T05:09:11.163Z,13.69
2019-04-26T05:11:58.964Z,13.71
2019-04-26T05:14:28.559Z,13.72
2019-04-26T05:17:26.973Z,13.71
2019-04-26T05:20:02.603Z,13.78
2019-04-26T05:23:03.477Z,13.80
2019-04-26T05:25:50.183Z,13.83
2019-04-26T05:28:40.078Z,13.88
2019-04-26T05:31:17.620Z,13.85
2019-04-26T05:33:47.787Z,13.95
2019-04-26T05:36:30.540Z,14.07
2019-04-26T05:39:05.954Z,14.17
2019-04-26T05:41:58.197Z,14.22
2019-04-26T05:45:08.382Z,14.35
2019-04-26T05:48:08.226Z,14.32
2019-04-26T05:50:53.715Z,14.54
2019-04-26T05:53:44.635Z,14.71
2019-04-26T05:56:21.682Z,14.80
2019-04-26T05:59:09.614Z,15.02
2019-04-26T06:01:59.341Z,15.23
2019-04-26T06:05:07.250Z,15.31
2019-04-26T06:07:52.013Z,15.36
2019-04-26T06:10:21.399Z,15.34
2019-04-26T06:13:02.955Z,15.22
2019-04-26T06:15:40.451Z,15.23
2019-04-26T06:18:14.461Z,15.33
2019-04-26T06:20:43.566Z,15.50
2019-04-26T06:23:12.847Z,15.57
2019-04-26T06:26:05.198Z,15.68
2019-04-26T06:28:37.823Z,15.76
2019-04-26T06:31:23.857Z,15.97
2019-04-26T06:34:05.553Z,16.15
2019-04-26T06:36:36.547Z,16.02
2019-04-26T06:39:28.467Z,15.99
2019-04-26T06:42:09.642Z,15.92
2019-04-26T06:45:02.881Z,15.87
2019-04-26T06:47:46.391Z,15.86
2019-04-26T06:50:35.491Z,15.86
2019-04-26T06:53:20.193Z,15.82
2019-04-26T06:55:54.701Z,15.97
2019-04-26T06:58:35.748Z,16.05
2019-04-26T07:01:16.816Z,16.02
2019-04-26T07:03:55.187Z,16.13
2019-04-26T07:06:54.564Z,16.20
2019-04-26T07:09:26.319Z,16.26
2019-04-26T07:12:28.168Z,16.19
2019-04-26T07:15:12.449Z,16.21
2019-04-26T07:17:50.620Z,16.15
2019-04-26T07:20:34.478Z,16.10
2019-04-26T07:23:27.107Z,16.13
2019-04-26T07:26:14.282Z,16.07
2019-04-26T07:29:12.195Z,15.95
2019-04-26T07:32:07.379Z,15.96
2019-04-26T07:34:44.455Z,16.15
2019-04-26T07:37:28.530Z,16.66
2019-04-26T07:40:12.158Z,17.66
2019-04-26T07:43:20.078Z,18.74
2019-04-26T07:46:18.255Z,19.11
2019-04-26T07:49:08.083Z,19.23
2019-04-26T07:52:10.819Z,19.51
2019-04-26T07:54:52.097Z,19.44
2019-04-26T07:57:38.572Z,19.34
2019-04-26T08:00:13.021Z,19.64
2019-04-26T08:03:02.216Z,19.58
2019-04-26T08:05:45.042Z,19.72
2019-04-26T08:08:15.002Z,19.90
2019-04-26T08:10:44.629Z,20.15
2019-04-26T08:13:15.253Z,19.92
2019-04-26T08:15:54.106Z,20.16
2019-04-26T08:18:25.595Z,19.92
2019-04-26T08:20:53.612Z,19.89
2019-04-26T08:23:38.622Z,19.85
2019-04-26T08:25:54.596Z,19.26
2019-04-26T08:28:21.171Z,19.00
2019-04-26T08:30:49.057Z,18.60
2019-04-26T08:33:19.336Z,18.59
2019-04-26T08:35:48.986Z,19.22
2019-04-26T08:38:21.977Z,19.73
2019-04-26T08:40:42.289Z,19.74
2019-04-26T08:43:10.945Z,19.08
2019-04-26T08:46:03.210Z,19.71
2019-04-26T08:48:31.503Z,19.94
2019-04-26T08:51:00.994Z,19.84
2019-04-26T08:53:27.773Z,20.03
2019-04-26T08:55:53.966Z,19.89
2019-04-26T08:58:21.647Z,19.37
2019-04-26T09:00:50.848Z,19.03
2019-04-26T09:03:20.231Z,18.74
2019-04-26T09:06:03.599Z,19.36
2019-04-26T09:08:32.477Z,19.67
2019-04-26T09:10:59.861Z,19.07
2019-04-26T09:13:29.440Z,18.51
2019-04-26T09:16:06.792Z,18.38
2019-04-26T09:18:42.433Z,18.77
2019-04-26T09:21:00.389Z,19.01
2019-04-26T09:23:39.582Z,18.79
2019-04-26T09:26:03.747Z,18.15
2019-04-26T09:28:37.295Z,18.78
2019-04-26T09:31:10.908Z,19.05
2019-04-26T09:33:44.463Z,17.97
2019-04-26T09:36:10.452Z,17.95
2019-04-26T09:38:36.228Z,18.68
2019-04-26T09:41:02.518Z,19.03
2019-04-26T09:43:39.100Z,18.06
2019-04-26T09:46:22.934Z,17.64
2019-04-26T09:49:03.066Z,17.73
2019-04-26T09:51:30.098Z,18.07
2019-04-26T09:53:55.869Z,18.38
2019-04-26T09:56:21.664Z,18.94
2019-04-26T09:58:47.442Z,18.72
2019-04-26T10:01:13.327Z,17.80
2019-04-26T10:03:39.100Z,18.09
2019-04-26T10:06:04.892Z,18.53
2019-04-26T10:08:30.665Z,18.72
2019-04-26T10:10:56.455Z,18.12
2019-04-26T10:13:29.922Z,18.10
2019-04-26T10:15:58.059Z,17.69
2019-04-26T10:18:25.974Z,17.60
2019-04-26T10:20:51.902Z,17.68
2019-04-26T10:23:17.683Z,17.51
2019-04-26T10:25:47.342Z,17.37
2019-04-26T10:28:11.726Z,17.15
2019-04-26T10:30:42.408Z,17.07
2019-04-26T10:33:06.727Z,17.16
2019-04-26T10:35:32.500Z,17.88
2019-04-26T10:37:58.288Z,17.58
2019-04-26T10:40:34.981Z,17.70
2019-04-26T10:42:51.775Z,17.31
2019-04-26T10:45:19.050Z,17.10
2019-04-26T10:47:44.947Z,17.10
2019-04-26T10:50:11.019Z,17.05
2019-04-26T10:52:54.392Z,16.88
2019-04-26T10:55:22.359Z,16.61
2019-04-26T10:57:51.154Z,16.26
2019-04-26T11:00:24.679Z,15.86
2019-04-26T11:02:50.481Z,15.98
2019-04-26T11:05:18.533Z,16.17
2019-04-26T11:07:43.943Z,16.31
2019-04-26T11:10:09.921Z,16.18
2019-04-26T11:12:35.715Z,16.27
2019-04-26T11:15:01.592Z,16.54
2019-04-26T11:17:27.392Z,16.15
2019-04-26T11:19:53.160Z,16.30
2019-04-26T11:22:28.579Z,16.57
2019-04-26T11:24:50.074Z,16.34
2019-04-26T11:27:14.330Z,16.46
2019-04-26T11:29:40.126Z,16.19
2019-04-26T11:32:05.904Z,16.21
2019-04-26T11:34:31.726Z,15.78
2019-04-26T11:36:57.554Z,15.78
2019-04-26T11:39:23.386Z,15.97
2019-04-26T11:41:49.174Z,16.30
2019-04-26T11:44:14.993Z,16.15
2019-04-26T11:46:44.935Z,15.90
2019-04-26T11:49:08.503Z,16.29
2019-04-26T11:51:34.251Z,16.29
2019-04-26T11:54:00.043Z,16.20
2019-04-26T11:56:25.833Z,16.05
2019-04-26T11:58:52.497Z,15.39
2019-04-26T12:01:21.315Z,15.47
2019-04-26T12:03:51.546Z,15.49
2019-04-26T12:06:21.291Z,15.63
2019-04-26T12:08:50.936Z,15.75
2019-04-26T12:11:18.604Z,15.65
2019-04-26T12:13:44.423Z,15.51
2019-04-26T12:16:10.223Z,15.34
2019-04-26T12:18:36.014Z,15.48
2019-04-26T12:21:02.145Z,15.44
2019-04-26T12:23:28.021Z,15.82
2019-04-26T12:25:53.840Z,16.05
2019-04-26T12:28:19.627Z,16.19
2019-04-26T12:30:45.422Z,16.52
2019-04-26T12:33:11.245Z,16.82
2019-04-26T12:35:36.994Z,17.33
2019-04-26T12:38:02.771Z,17.64
2019-04-26T12:40:28.565Z,17.39
2019-04-26T12:42:54.353Z,17.37
2019-04-26T12:45:39.951Z,16.84
2019-04-26T12:48:16.825Z,17.25
2019-04-26T12:50:42.923Z,17.69
2019-04-26T12:53:08.702Z,17.18
2019-04-26T12:55:34.489Z,16.85
2019-04-26T12:58:00.273Z,16.36
2019-04-26T13:00:27.970Z,16.40
2019-04-26T13:02:54.308Z,16.33
2019-04-26T13:05:21.548Z,16.81
2019-04-26T13:07:49.237Z,17.37
2019-04-26T13:10:16.935Z,17.20
2019-04-26T13:12:53.443Z,17.08
2019-04-26T13:15:36.546Z,17.20
2019-04-26T13:18:02.337Z,17.06
2019-04-26T13:20:28.771Z,18.29
2019-04-26T13:22:55.998Z,17.89
2019-04-26T13:25:26.506Z,17.41
2019-04-26T13:27:49.504Z,17.40
2019-04-26T13:30:15.283Z,17.15
2019-04-26T13:32:41.079Z,16.86
2019-04-26T13:35:07.277Z,16.67
2019-04-26T13:37:35.710Z,16.85
2019-04-26T13:40:02.739Z,16.98
2019-04-26T13:42:28.537Z,16.77
2019-04-26T13:45:02.191Z,16.57
2019-04-26T13:47:38.571Z,16.61
2019-04-26T13:50:07.356Z,16.65
2019-04-26T13:52:33.157Z,16.87
2019-04-26T13:54:58.940Z,16.61
2019-04-26T13:57:24.720Z,16.43
2019-04-26T13:59:50.492Z,16.34
2019-04-26T14:02:16.488Z,16.35
2019-04-26T14:04:42.714Z,16.23
2019-04-26T14:07:08.568Z,16.20
2019-04-26T14:09:34.347Z,16.54
2019-04-26T14:12:03.352Z,16.53
2019-04-26T14:14:30.202Z,16.47
2019-04-26T14:16:55.727Z,16.35
2019-04-26T14:19:22.798Z,16.21
2019-04-26T14:21:48.611Z,16.29
2019-04-26T14:24:19.639Z,16.66
2019-04-26T14:26:48.663Z,16.77
2019-04-26T14:29:14.459Z,16.81
2019-04-26T14:31:40.351Z,16.60
2019-04-26T14:34:07.098Z,16.57
2019-04-26T14:36:32.941Z,16.46
2019-04-26T14:39:05.581Z,16.64
2019-04-26T14:41:26.595Z,16.44
2019-04-26T14:43:56.671Z,16.17
2019-04-26T14:46:22.827Z,16.01
2019-04-26T14:49:00.926Z,16.02
2019-04-26T14:51:16.888Z,15.69
2019-04-26T14:53:43.266Z,15.59
2019-04-26T14:56:09.042Z,15.61
2019-04-26T14:58:34.832Z,15.79
2019-04-26T15:01:05.065Z,15.76
2019-04-26T15:03:34.067Z,15.57
2019-04-26T15:06:20.535Z,15.17
2019-04-26T15:08:48.673Z,14.97
2019-04-26T15:11:13.519Z,14.90
2019-04-26T15:13:40.537Z,14.62
2019-04-26T15:16:10.338Z,14.57
2019-04-26T15:18:37.049Z,14.83
2019-04-26T15:21:04.229Z,14.72
2019-04-26T15:23:30.064Z,14.54
2019-04-26T15:25:58.402Z,14.64
2019-04-26T15:28:23.576Z,14.47
2019-04-26T15:30:49.358Z,14.45
2019-04-26T15:33:15.140Z,14.40
2019-04-26T15:35:42.173Z,14.56
2019-04-26T15:38:08.005Z,14.58
2019-04-26T15:40:38.550Z,14.88
2019-04-26T15:43:24.044Z,15.05
2019-04-26T15:46:08.098Z,14.85
2019-04-26T15:48:38.554Z,14.77
2019-04-26T15:51:04.431Z,14.66
2019-04-26T15:53:30.219Z,14.56
2019-04-26T15:55:56.007Z,14.53
2019-04-26T15:58:21.784Z,14.59
2019-04-26T16:00:47.580Z,14.45
2019-04-26T16:03:13.358Z,14.34
2019-04-26T16:05:39.464Z,14.50
2019-04-26T16:08:05.236Z,14.49
2019-04-26T16:10:37.078Z,14.31
2019-04-26T16:13:01.260Z,14.34
2019-04-26T16:15:26.401Z,14.40
2019-04-26T16:17:52.251Z,14.44
2019-04-26T16:20:18.035Z,14.48
2019-04-26T16:22:43.814Z,14.31
2019-04-26T16:25:09.616Z,14.29
2019-04-26T16:27:35.410Z,14.39
2019-04-26T16:30:04.830Z,14.26
2019-04-26T16:32:38.019Z,14.09
2019-04-26T16:35:05.200Z,14.20
2019-04-26T16:37:33.102Z,14.07
2019-04-26T16:39:58.694Z,14.01
2019-04-26T16:42:24.481Z,14.04
2019-04-26T16:44:50.255Z,14.01
2019-04-26T16:47:16.046Z,13.86
2019-04-26T16:49:44.161Z,13.86
2019-04-26T16:52:09.531Z,13.84
2019-04-26T16:54:35.312Z,13.50
2019-04-26T16:57:06.928Z,13.62
2019-04-26T16:59:28.778Z,13.41
2019-04-26T17:01:54.572Z,13.36
2019-04-26T17:04:28.762Z,13.40
2019-04-26T17:06:48.141Z,13.46
2019-04-26T17:09:14.478Z,13.46
2019-04-26T17:11:41.405Z,13.48
2019-04-26T17:14:10.135Z,13.38
2019-04-26T17:16:38.074Z,13.36
2019-04-26T17:19:03.208Z,13.41
2019-04-26T17:21:32.822Z,13.40
2019-04-26T17:24:16.970Z,13.35
2019-04-26T17:26:44.683Z,13.11
2019-04-26T17:29:10.462Z,13.22
2019-04-26T17:31:36.259Z,13.10
2019-04-26T17:34:03.522Z,13.15
2019-04-26T17:36:29.743Z,13.11
2019-04-26T17:38:55.535Z,13.14
2019-04-26T17:41:21.345Z,13.12
2019-04-26T17:43:50.614Z,13.05
2019-04-26T17:46:18.300Z,13.14
2019-04-26T17:48:44.818Z,13.22
2019-04-26T17:51:18.442Z,13.27
2019-04-26T17:53:38.000Z,13.28
2019-04-26T17:56:03.921Z,13.24
2019-04-26T17:58:32.456Z,13.32
2019-04-26T18:01:02.428Z,13.13
2019-04-26T18:03:25.253Z,13.18
2019-04-26T18:05:57.229Z,13.10
2019-04-26T18:08:36.211Z,13.11
2019-04-26T18:10:46.542Z,13.00
2019-04-26T18:13:16.229Z,12.95
2019-04-26T18:15:44.502Z,12.92
2019-04-26T18:18:26.052Z,12.88
2019-04-26T18:21:05.666Z,12.76
2019-04-26T18:23:31.470Z,12.59
2019-04-26T18:25:57.250Z,12.51
2019-04-26T18:28:23.069Z,12.49
2019-04-26T18:30:48.843Z,12.40
2019-04-26T18:33:17.485Z,12.35
2019-04-26T18:35:45.116Z,12.38
2019-04-26T18:38:12.606Z,12.29
2019-04-26T18:40:58.927Z,12.25
2019-04-26T18:43:05.383Z,12.12
2019-04-26T18:45:31.178Z,11.96
2019-04-26T18:48:01.483Z,11.81
2019-04-26T18:50:28.452Z,11.88
2019-04-26T18:53:03.370Z,11.85
2019-04-26T18:55:30.991Z,11.82
2019-04-26T18:58:01.450Z,11.74
2019-04-26T19:00:28.931Z,11.71
2019-04-26T19:02:55.414Z,11.70
2019-04-26T19:05:26.905Z,11.70
2019-04-26T19:07:50.219Z,11.62
2019-04-26T19:10:16.683Z,11.68
2019-04-26T19:12:43.987Z,11.60
2019-04-26T19:15:23.713Z,11.54
2019-04-26T19:18:07.772Z,11.44
2019-04-26T19:20:38.293Z,11.41
2019-04-26T19:23:06.195Z,11.39
2019-04-26T19:25:35.648Z,11.39
2019-04-26T19:28:04.447Z,11.46
2019-04-26T19:30:27.530Z,11.45
2019-04-26T19:32:53.901Z,11.48
2019-04-26T19:35:21.780Z,11.42
2019-04-26T19:37:47.660Z,11.41
2019-04-26T19:40:13.448Z,11.42
2019-04-26T19:42:39.222Z,11.44
2019-04-26T19:45:13.556Z,11.40
2019-04-26T19:47:39.495Z,11.44
2019-04-26T19:50:09.641Z,11.39
2019-04-26T19:52:39.551Z,11.37
2019-04-26T19:55:13.756Z,11.46
2019-04-26T19:57:42.610Z,11.50
2019-04-26T20:00:09.395Z,11.42
2019-04-26T20:02:38.937Z,11.38
2019-04-26T20:05:06.662Z,11.39
2019-04-26T20:07:33.162Z,11.27
2019-04-26T20:10:02.334Z,11.39
2019-04-26T20:12:29.526Z,11.30
2019-04-26T20:14:58.289Z,11.26
2019-04-26T20:17:23.476Z,11.31
2019-04-26T20:19:53.991Z,11.27
2019-04-26T20:22:22.172Z,11.35
2019-04-26T20:24:48.542Z,11.33
2019-04-26T20:27:14.102Z,11.32
2019-04-26T20:29:46.736Z,11.37
2019-04-26T20:32:24.767Z,11.32
2019-04-26T20:34:52.511Z,11.34
2019-04-26T20:37:22.864Z,11.29
2019-04-26T20:39:46.010Z,11.18
2019-04-26T20:42:12.125Z,11.22
2019-04-26T20:44:50.461Z,11.15
2019-04-26T20:47:07.647Z,11.14
2019-04-26T20:49:33.466Z,11.12
2019-04-26T20:51:59.361Z,11.17
2019-04-26T20:54:25.144Z,11.21
2019-04-26T20:56:55.398Z,11.19
2019-04-26T20:59:20.316Z,11.16
2019-04-26T21:01:46.740Z,11.17
2019-04-26T21:04:33.886Z,11.28
2019-04-26T21:06:40.408Z,11.22
2019-04-26T21:09:08.150Z,11.32
2019-04-26T21:11:37.198Z,11.22
2019-04-26T21:14:07.432Z,11.18
2019-04-26T21:16:29.352Z,11.12
2019-04-26T21:18:55.138Z,11.23
2019-04-26T21:21:21.744Z,11.13
2019-04-26T21:23:49.223Z,11.14
2019-04-26T21:26:33.080Z,11.20
2019-04-26T21:29:00.766Z,11.27
2019-04-26T21:31:36.288Z,11.33
2019-04-26T21:34:03.866Z,11.36
2019-04-26T21:36:40.813Z,11.35
2019-04-26T21:39:11.385Z,11.41
2019-04-26T21:41:40.436Z,11.42
2019-04-26T21:44:07.550Z,11.42
2019-04-26T21:46:34.457Z,11.41
2019-04-26T21:49:00.238Z,11.38
2019-04-26T21:51:26.045Z,11.33
2019-04-26T21:53:52.996Z,11.25
2019-04-26T21:56:18.938Z,11.25
2019-04-26T21:58:46.063Z,11.20
2019-04-26T22:01:16.709Z,11.23
2019-04-26T22:03:47.373Z,11.21
2019-04-26T22:06:09.297Z,11.17
2019-04-26T22:08:39.604Z,11.18
2019-04-26T22:11:05.399Z,11.14
2019-04-26T22:13:41.561Z,11.13
2019-04-26T22:16:37.206Z,11.13
2019-04-26T22:18:56.960Z,11.08
2019-04-26T22:21:28.830Z,11.11
2019-04-26T22:23:56.072Z,11.17
2019-04-26T22:26:23.583Z,11.12
2019-04-26T22:28:49.775Z,11.08
2019-04-26T22:31:15.558Z,11.08
2019-04-26T22:33:42.860Z,11.07
2019-04-26T22:36:09.050Z,11.08
2019-04-26T22:38:34.869Z,11.03
2019-04-26T22:41:00.748Z,10.97
2019-04-26T22:43:40.080Z,10.82
2019-04-26T22:46:18.575Z,10.83
2019-04-26T22:48:54.654Z,10.85
2019-04-26T22:51:16.393Z,10.90
2019-04-26T22:53:43.379Z,10.95
2019-04-26T22:56:09.279Z,10.97
2019-04-26T22:58:35.101Z,11.03
2019-04-26T23:01:03.528Z,11.01
2019-04-26T23:03:28.618Z,11.02
2019-04-26T23:05:55.068Z,11.03
2019-04-26T23:08:21.495Z,11.06
2019-04-26T23:10:49.190Z,11.01
2019-04-26T23:13:16.888Z,10.99
2019-04-26T23:15:53.559Z,11.00
2019-04-26T23:18:21.605Z,11.02
2019-04-26T23:20:57.801Z,10.99
2019-04-26T23:23:23.766Z,10.98
2019-04-26T23:25:49.543Z,10.97
2019-04-26T23:28:15.337Z,10.93
2019-04-26T23:30:42.526Z,10.92
2019-04-26T23:33:09.010Z,10.88
2019-04-26T23:35:37.513Z,10.92
2019-04-26T23:38:05.212Z,10.94
2019-04-26T23:40:30.415Z,10.92
2019-04-26T23:42:56.194Z,10.92
2019-04-26T23:45:23.118Z,10.90
2019-04-26T23:47:48.963Z,10.90
2019-04-26T23:50:14.774Z,10.90
2019-04-26T23:52:40.549Z,10.85
2019-04-26T23:55:08.797Z,10.88
2019-04-26T23:57:36.213Z,10.88
